createdAt,value
2023-05-25T00:01:55.051Z,100212.50
2023-05-25T00:04:27.675Z,100207.69
2023-05-25T00:06:55.887Z,100204.13
2023-05-25T00:09:25.784Z,100209.41
2023-05-25T00:11:53.849Z,100218.34
2023-05-25T00:14:23.953Z,100213.72
2023-05-25T00:16:53.764Z,100213.16
2023-05-25T00:19:22.048Z,100226.09
2023-05-25T00:21:50.429Z,100222.88
2023-05-25T00:24:18.702Z,100222.56
2023-05-25T00:26:47.844Z,100218.78
2023-05-25T00:29:15.855Z,100219.47
2023-05-25T00:31:44.291Z,100226.94
2023-05-25T00:34:12.374Z,100231.69
2023-05-25T00:36:40.523Z,100239.56
2023-05-25T00:39:11.106Z,100238.88
2023-05-25T00:41:42.082Z,100234.50
2023-05-25T00:44:10.885Z,100244.94
2023-05-25T00:46:39.641Z,100248.81
2023-05-25T00:49:07.706Z,100246.22
2023-05-25T00:51:36.914Z,100235.16
2023-05-25T00:54:04.756Z,100228.47
2023-05-25T00:56:38.674Z,100231.16
2023-05-25T00:59:08.497Z,100233.50
2023-05-25T01:01:40.584Z,100238.25
2023-05-25T01:04:11.589Z,100239.41
2023-05-25T01:06:43.761Z,100242.62
2023-05-25T01:09:16.649Z,100237.37
2023-05-25T01:11:49.702Z,100228.75
2023-05-25T01:14:22.113Z,100227.25
2023-05-25T01:16:52.090Z,100219.38
2023-05-25T01:19:20.496Z,100219.66
2023-05-25T01:22:08.938Z,100223.31
2023-05-25T01:24:55.162Z,100225.31
2023-05-25T01:27:32.857Z,100206.87
2023-05-25T01:30:03.167Z,100226.94
2023-05-25T01:32:33.866Z,100220.28
2023-05-25T01:35:04.880Z,100216.94
2023-05-25T01:37:37.965Z,100214.09
2023-05-25T01:40:06.856Z,100220.69
2023-05-25T01:42:34.684Z,100226.19
2023-05-25T01:45:06.053Z,100220.41
2023-05-25T01:48:18.969Z,100229.50
2023-05-25T01:51:16.633Z,100211.84
2023-05-25T01:53:53.937Z,100219.06
2023-05-25T01:56:23.677Z,100211.91
2023-05-25T01:58:53.580Z,100207.47
2023-05-25T02:01:23.715Z,100208.19
2023-05-25T02:03:52.876Z,100210.25
2023-05-25T02:06:21.418Z,100211.91
2023-05-25T02:08:49.622Z,100206.94
2023-05-25T02:11:26.481Z,100211.47
2023-05-25T02:13:55.496Z,100217.47
2023-05-25T02:16:24.057Z,100206.87
2023-05-25T02:18:53.534Z,100211.78
2023-05-25T02:21:24.269Z,100204.50
2023-05-25T02:23:54.449Z,100219.84
2023-05-25T02:26:22.522Z,100227.78
2023-05-25T02:28:52.400Z,100230.72
2023-05-25T02:31:20.842Z,100236.00
2023-05-25T02:33:49.018Z,100239.56
2023-05-25T02:36:17.486Z,100251.41
2023-05-25T02:38:47.836Z,100254.88
2023-05-25T02:41:16.718Z,100260.94
2023-05-25T02:43:45.548Z,100254.97
2023-05-25T02:46:13.960Z,100259.94
2023-05-25T02:48:43.779Z,100263.84
2023-05-25T02:51:12.280Z,100256.47
2023-05-25T02:53:40.203Z,100249.41
2023-05-25T02:56:10.654Z,100236.87
2023-05-25T02:58:39.495Z,100233.78
2023-05-25T03:01:11.448Z,100248.13
2023-05-25T03:03:40.439Z,100251.72
2023-05-25T03:06:08.514Z,100245.62
2023-05-25T03:08:36.665Z,100251.84
2023-05-25T03:11:05.058Z,100256.00
2023-05-25T03:13:34.219Z,100255.06
2023-05-25T03:16:02.552Z,100254.25
2023-05-25T03:18:30.961Z,100245.47
2023-05-25T03:20:58.899Z,100250.47
2023-05-25T03:23:27.007Z,100241.66
2023-05-25T03:25:55.769Z,100244.03
2023-05-25T03:28:24.052Z,100229.84
2023-05-25T03:30:52.967Z,100235.78
2023-05-25T03:33:21.454Z,100237.03
2023-05-25T03:35:49.558Z,100234.47
2023-05-25T03:38:17.612Z,100235.84
2023-05-25T03:40:46.224Z,100221.72
2023-05-25T03:43:14.178Z,100232.63
2023-05-25T03:45:44.759Z,100224.13
2023-05-25T03:48:13.334Z,100223.13
2023-05-25T03:50:41.637Z,100227.25
2023-05-25T03:53:10.021Z,100225.03
2023-05-25T03:55:39.301Z,100215.38
2023-05-25T03:58:10.969Z,100206.97
2023-05-25T04:00:39.550Z,100214.31
2023-05-25T04:03:11.771Z,100205.22
2023-05-25T04:05:39.813Z,100216.69
2023-05-25T04:08:10.280Z,100214.34
2023-05-25T04:10:38.285Z,100208.88
2023-05-25T04:13:06.286Z,100211.69
2023-05-25T04:15:35.085Z,100217.94
2023-05-25T04:18:03.828Z,100210.59
2023-05-25T04:20:33.048Z,100215.47
2023-05-25T04:23:01.701Z,100209.69
2023-05-25T04:25:43.268Z,100203.44
2023-05-25T04:28:12.741Z,100215.25
2023-05-25T04:30:41.982Z,100217.22
2023-05-25T04:33:14.347Z,100204.50
2023-05-25T04:35:47.460Z,100224.56
2023-05-25T04:38:18.022Z,100223.91
2023-05-25T04:40:49.479Z,100228.34
2023-05-25T04:43:21.095Z,100222.25
2023-05-25T04:45:49.235Z,100226.75
2023-05-25T04:48:18.374Z,100226.31
2023-05-25T04:50:47.077Z,100229.03
2023-05-25T04:53:15.952Z,100225.56
2023-05-25T04:55:44.706Z,100244.00
2023-05-25T04:58:14.654Z,100261.31
2023-05-25T05:00:43.745Z,100273.81
2023-05-25T05:03:12.475Z,100278.41
2023-05-25T05:05:40.613Z,100272.56
2023-05-25T05:08:09.493Z,100270.97
2023-05-25T05:10:37.988Z,100278.88
2023-05-25T05:13:06.738Z,100284.91
2023-05-25T05:15:34.820Z,100279.75
2023-05-25T05:18:04.351Z,100265.13
2023-05-25T05:20:33.127Z,100272.38
2023-05-25T05:23:01.400Z,100272.00
2023-05-25T05:25:29.740Z,100271.06
2023-05-25T05:27:58.153Z,100269.16
2023-05-25T05:30:26.615Z,100267.06
2023-05-25T05:32:55.008Z,100267.50
2023-05-25T05:35:24.089Z,100261.09
2023-05-25T05:37:52.343Z,100266.16
2023-05-25T05:40:20.975Z,100262.69
2023-05-25T05:42:49.204Z,100265.88
2023-05-25T05:45:17.421Z,100252.22
2023-05-25T05:47:46.228Z,100252.78
2023-05-25T05:50:14.294Z,100261.41
2023-05-25T05:52:42.701Z,100267.09
2023-05-25T05:55:11.905Z,100258.03
2023-05-25T05:57:40.192Z,100259.69
2023-05-25T06:00:20.964Z,100263.19
2023-05-25T06:02:51.894Z,100254.13
2023-05-25T06:05:21.322Z,100259.25
2023-05-25T06:07:50.031Z,100250.34
2023-05-25T06:10:19.794Z,100248.84
2023-05-25T06:13:09.527Z,100252.53
2023-05-25T06:15:38.088Z,100252.91
2023-05-25T06:18:07.208Z,100234.38
2023-05-25T06:20:51.372Z,100247.72
2023-05-25T06:23:19.807Z,100248.41
2023-05-25T06:25:51.627Z,100248.84
2023-05-25T06:28:20.152Z,100241.19
2023-05-25T06:31:02.170Z,100235.50
2023-05-25T06:33:30.452Z,100231.41
2023-05-25T06:36:00.970Z,100233.00
2023-05-25T06:38:29.113Z,100239.59
2023-05-25T06:40:57.689Z,100252.09
2023-05-25T06:43:25.631Z,100231.47
2023-05-25T06:45:54.200Z,100242.62
2023-05-25T06:48:23.042Z,100238.56
2023-05-25T06:50:51.188Z,100230.41
2023-05-25T06:53:19.208Z,100235.97
2023-05-25T06:55:47.676Z,100229.16
2023-05-25T06:58:15.881Z,100226.41
2023-05-25T07:00:44.815Z,100221.19
2023-05-25T07:03:15.080Z,100224.13
2023-05-25T07:05:43.293Z,100222.91
2023-05-25T07:08:11.732Z,100214.25
2023-05-25T07:10:40.109Z,100208.00
2023-05-25T07:13:08.062Z,100201.59
2023-05-25T07:15:36.245Z,100199.47
2023-05-25T07:18:04.718Z,100176.37
2023-05-25T07:20:34.578Z,100189.87
2023-05-25T07:23:02.828Z,100197.50
2023-05-25T07:25:31.871Z,100192.75
2023-05-25T07:28:00.355Z,100193.28
2023-05-25T07:30:28.335Z,100187.16
2023-05-25T07:32:58.523Z,100195.31
2023-05-25T07:35:26.963Z,100196.69
2023-05-25T07:38:00.617Z,100191.28
2023-05-25T07:40:29.190Z,100198.56
2023-05-25T07:42:57.530Z,100205.12
2023-05-25T07:45:25.705Z,100203.81
2023-05-25T07:47:54.363Z,100206.22
2023-05-25T07:50:22.602Z,100206.13
2023-05-25T07:52:50.572Z,100211.84
2023-05-25T07:55:20.475Z,100214.38
2023-05-25T07:57:48.452Z,100214.88
2023-05-25T08:00:16.748Z,100219.78
2023-05-25T08:02:45.847Z,100213.66
2023-05-25T08:05:14.263Z,100217.78
2023-05-25T08:07:42.992Z,100211.91
2023-05-25T08:10:12.096Z,100211.91
2023-05-25T08:12:49.038Z,100207.78
2023-05-25T08:15:18.442Z,100209.84
2023-05-25T08:17:51.232Z,100203.69
2023-05-25T08:20:19.991Z,100219.00
2023-05-25T08:22:48.071Z,100210.69
2023-05-25T08:25:16.307Z,100204.34
2023-05-25T08:27:44.686Z,100208.00
2023-05-25T08:30:12.915Z,100212.34
2023-05-25T08:32:41.119Z,100210.69
2023-05-25T08:35:10.455Z,100210.00
2023-05-25T08:37:38.667Z,100216.66
2023-05-25T08:40:09.518Z,100216.16
2023-05-25T08:42:37.876Z,100219.66
2023-05-25T08:45:06.565Z,100208.34
2023-05-25T08:47:41.229Z,100213.69
2023-05-25T08:50:10.836Z,100218.66
2023-05-25T08:52:41.295Z,100221.66
2023-05-25T08:55:10.693Z,100221.31
2023-05-25T08:57:58.220Z,100221.00
2023-05-25T09:00:32.557Z,100221.97
2023-05-25T09:03:12.456Z,100231.31
2023-05-25T09:05:41.215Z,100222.00
2023-05-25T09:08:10.765Z,100218.44
2023-05-25T09:10:39.536Z,100213.63
2023-05-25T09:15:39.282Z,100210.47
2023-05-25T09:18:07.930Z,100207.53
2023-05-25T09:20:36.236Z,100201.50
2023-05-25T09:23:04.809Z,100182.22
2023-05-25T09:25:34.294Z,100205.06
2023-05-25T09:28:13.705Z,100202.84
2023-05-25T09:30:51.666Z,100199.87
2023-05-25T09:33:20.358Z,100195.94
2023-05-25T09:35:52.169Z,100192.19
2023-05-25T09:38:22.056Z,100192.44
2023-05-25T09:40:51.601Z,100164.00
2023-05-25T09:43:28.870Z,100180.66
2023-05-25T09:46:01.716Z,100177.50
2023-05-25T09:48:29.787Z,100173.09
2023-05-25T09:50:58.419Z,100170.38
2023-05-25T09:53:27.378Z,100178.31
2023-05-25T09:55:56.764Z,100177.03
2023-05-25T10:01:13.602Z,100172.63
2023-05-25T10:04:03.520Z,100168.50
2023-05-25T10:06:33.777Z,100169.88
2023-05-25T10:09:02.523Z,100178.03
2023-05-25T10:11:31.175Z,100171.03
2023-05-25T10:14:04.404Z,100173.63
2023-05-25T10:16:35.192Z,100167.91
2023-05-25T10:19:28.349Z,100173.63
2023-05-25T10:22:22.430Z,100174.75
2023-05-25T10:24:57.904Z,100177.56
2023-05-25T10:27:34.729Z,100170.91
2023-05-25T10:30:03.376Z,100171.97
2023-05-25T10:32:35.296Z,100177.38
2023-05-25T10:35:05.878Z,100169.59
2023-05-25T10:37:35.566Z,100164.53
2023-05-25T10:40:04.170Z,100157.88
2023-05-25T10:42:34.794Z,100160.88
2023-05-25T10:45:05.897Z,100165.22
2023-05-25T10:47:38.322Z,100168.66
2023-05-25T10:50:07.537Z,100160.06
2023-05-25T10:52:35.839Z,100155.37
2023-05-25T10:55:07.611Z,100155.06
2023-05-25T10:57:36.055Z,100158.63
2023-05-25T11:00:08.581Z,100152.00
2023-05-25T11:02:53.940Z,100148.72
2023-05-25T11:05:28.226Z,100152.41
2023-05-25T11:08:12.686Z,100146.00
2023-05-25T11:10:50.016Z,100137.66
2023-05-25T11:13:42.824Z,100145.37
2023-05-25T11:16:20.501Z,100131.69
2023-05-25T11:18:54.797Z,100137.72
2023-05-25T11:21:24.210Z,100141.16
2023-05-25T11:24:04.647Z,100141.78
2023-05-25T11:26:36.848Z,100138.53
2023-05-25T11:29:25.732Z,100133.88
2023-05-25T11:31:55.876Z,100129.91
2023-05-25T11:34:26.264Z,100130.00
2023-05-25T11:36:56.140Z,100125.37
2023-05-25T11:39:27.150Z,100131.59
2023-05-25T11:41:58.143Z,100120.12
2023-05-25T11:44:34.039Z,100119.41
2023-05-25T11:47:06.294Z,100122.97
2023-05-25T11:49:35.081Z,100122.56
2023-05-25T11:52:07.574Z,100125.28
2023-05-25T11:54:36.954Z,100115.37
2023-05-25T11:57:05.314Z,100111.91
2023-05-25T11:59:33.804Z,100111.59
2023-05-25T12:02:04.156Z,100096.69
2023-05-25T12:04:34.516Z,100097.59
2023-05-25T12:07:08.194Z,100099.91
2023-05-25T12:09:37.243Z,100095.34
2023-05-25T12:12:05.799Z,100084.72
2023-05-25T12:14:36.397Z,100076.69
2023-05-25T12:17:06.806Z,100070.72
2023-05-25T12:19:34.916Z,100064.78
2023-05-25T12:22:03.696Z,100065.97
2023-05-25T12:24:32.189Z,100073.44
2023-05-25T12:27:02.198Z,100073.91
2023-05-25T12:29:30.079Z,100070.72
2023-05-25T12:32:08.027Z,100074.91
2023-05-25T12:34:36.105Z,100082.44
2023-05-25T12:37:04.408Z,100075.69
2023-05-25T12:39:32.182Z,100095.38
2023-05-25T12:42:02.677Z,100102.00
2023-05-25T12:44:35.450Z,100093.66
2023-05-25T12:47:17.142Z,100089.56
2023-05-25T12:52:43.525Z,100084.19
2023-05-25T12:55:28.530Z,100098.31
2023-05-25T12:57:58.303Z,100086.16
2023-05-25T13:03:18.675Z,100096.66
2023-05-25T13:05:47.145Z,100099.06
2023-05-25T13:08:16.088Z,100098.22
2023-05-25T13:10:44.439Z,100084.13
2023-05-25T13:13:13.507Z,100075.94
2023-05-25T13:15:41.342Z,100072.81
2023-05-25T13:18:09.430Z,100073.75
2023-05-25T13:20:38.722Z,100074.16
2023-05-25T13:23:06.779Z,100077.31
2023-05-25T13:25:34.736Z,100075.78
2023-05-25T13:28:03.098Z,100074.34
2023-05-25T13:30:31.106Z,100070.06
2023-05-25T13:32:59.260Z,100061.03
2023-05-25T13:35:58.566Z,100055.31
2023-05-25T13:38:27.494Z,100064.94
2023-05-25T13:40:55.950Z,100062.09
2023-05-25T13:43:23.806Z,100074.63
2023-05-25T13:46:04.355Z,100071.94
2023-05-25T13:48:33.490Z,100065.00
2023-05-25T13:51:03.692Z,100058.94
2023-05-25T13:53:32.110Z,100058.03
2023-05-25T13:56:00.869Z,100057.44
2023-05-25T13:58:29.063Z,100057.50
2023-05-25T14:01:09.454Z,100060.00
2023-05-25T14:03:39.534Z,100053.03
2023-05-25T14:06:07.724Z,100069.28
2023-05-25T14:08:35.704Z,100067.41
2023-05-25T14:11:18.446Z,100061.84
2023-05-25T14:13:49.914Z,100052.91
2023-05-25T14:16:18.726Z,100062.38
2023-05-25T14:18:46.939Z,100058.34
2023-05-25T14:21:14.917Z,100057.13
2023-05-25T14:23:43.521Z,100061.19
2023-05-25T14:26:11.671Z,100058.03
2023-05-25T14:28:39.757Z,100060.81
2023-05-25T14:31:08.332Z,100059.06
2023-05-25T14:33:37.569Z,100060.22
2023-05-25T14:36:06.514Z,100063.34
2023-05-25T14:38:35.013Z,100059.81
2023-05-25T14:41:15.223Z,100057.47
2023-05-25T14:43:43.788Z,100047.66
2023-05-25T14:46:12.283Z,100058.94
2023-05-25T14:48:40.517Z,100053.53
2023-05-25T14:51:09.333Z,100051.16
2023-05-25T14:53:37.717Z,100045.53
2023-05-25T14:56:25.192Z,100049.47
2023-05-25T14:58:53.164Z,100051.63
2023-05-25T15:01:24.472Z,100057.16
2023-05-25T15:03:54.150Z,100057.47
2023-05-25T15:06:22.580Z,100041.19
2023-05-25T15:08:50.785Z,100063.78
2023-05-25T15:11:37.159Z,100063.84
2023-05-25T15:14:18.205Z,100055.53
2023-05-25T15:16:46.970Z,100064.66
2023-05-25T15:19:17.513Z,100048.44
2023-05-25T15:21:46.205Z,100053.50
2023-05-25T15:24:17.038Z,100050.72
2023-05-25T15:26:45.771Z,100045.88
2023-05-25T15:29:27.726Z,100039.31
2023-05-25T15:31:56.340Z,100044.81
2023-05-25T15:34:37.125Z,100032.06
2023-05-25T15:37:05.817Z,100032.03
2023-05-25T15:39:36.723Z,100027.19
2023-05-25T15:42:05.080Z,100033.50
2023-05-25T15:44:34.350Z,100028.38
2023-05-25T15:47:02.467Z,100032.12
2023-05-25T15:49:33.730Z,100037.44
2023-05-25T15:52:02.609Z,100038.84
2023-05-25T15:54:30.940Z,100050.19
2023-05-25T15:56:58.965Z,100045.94
2023-05-25T15:59:27.356Z,100048.66
2023-05-25T16:01:55.463Z,100044.19
2023-05-25T16:04:24.036Z,100042.03
2023-05-25T16:06:52.143Z,100040.03
2023-05-25T16:09:20.238Z,100045.00
2023-05-25T16:11:48.569Z,100047.19
2023-05-25T16:14:16.809Z,100044.66
2023-05-25T16:16:44.846Z,100041.53
2023-05-25T16:19:14.193Z,100051.97
2023-05-25T16:21:42.399Z,100049.34
2023-05-25T16:24:24.930Z,100050.75
2023-05-25T16:26:54.863Z,100054.63
2023-05-25T16:29:23.399Z,100041.00
2023-05-25T16:31:52.178Z,100050.47
2023-05-25T16:34:20.379Z,100047.66
2023-05-25T16:36:48.832Z,100045.66
2023-05-25T16:39:17.220Z,100049.12
2023-05-25T16:41:45.240Z,100049.00
2023-05-25T16:44:13.807Z,100058.28
2023-05-25T16:46:42.131Z,100032.84
2023-05-25T16:49:10.316Z,100056.59
2023-05-25T16:51:38.851Z,100056.25
2023-05-25T16:54:07.406Z,100053.22
2023-05-25T16:56:36.455Z,100060.50
2023-05-25T16:59:04.987Z,100056.53
2023-05-25T17:01:33.144Z,100074.31
2023-05-25T17:04:01.429Z,100072.94
2023-05-25T17:06:30.226Z,100077.63
2023-05-25T17:08:58.466Z,100073.97
2023-05-25T17:11:26.872Z,100074.78
2023-05-25T17:13:56.125Z,100073.78
2023-05-25T17:16:24.214Z,100075.09
2023-05-25T17:18:52.287Z,100070.06
2023-05-25T17:21:21.530Z,100080.44
2023-05-25T17:23:49.933Z,100081.97
2023-05-25T17:26:18.068Z,100072.13
2023-05-25T17:28:46.683Z,100071.94
2023-05-25T17:31:14.614Z,100070.97
2023-05-25T17:33:42.659Z,100071.13
2023-05-25T17:36:11.269Z,100066.12
2023-05-25T17:38:39.381Z,100073.94
2023-05-25T17:41:07.441Z,100071.41
2023-05-25T17:43:35.857Z,100068.25
2023-05-25T17:46:04.006Z,100068.75
2023-05-25T17:48:32.217Z,100068.91
2023-05-25T17:51:00.730Z,100075.56
2023-05-25T17:53:28.910Z,100069.97
2023-05-25T17:55:57.451Z,100058.34
2023-05-25T17:58:26.330Z,100068.31
2023-05-25T18:00:54.610Z,100081.22
2023-05-25T18:03:24.593Z,100071.25
2023-05-25T18:05:52.925Z,100062.22
2023-05-25T18:08:21.725Z,100060.97
2023-05-25T18:10:50.955Z,100052.69
2023-05-25T18:13:19.059Z,100051.06
2023-05-25T18:15:47.363Z,100058.22
2023-05-25T18:18:17.005Z,100054.94
2023-05-25T18:20:45.073Z,100058.88
2023-05-25T18:23:13.741Z,100069.06
2023-05-25T18:25:42.338Z,100068.25
2023-05-25T18:28:12.730Z,100059.12
2023-05-25T18:30:41.635Z,100062.12
2023-05-25T18:33:10.980Z,100062.50
2023-05-25T18:35:39.516Z,100059.38
2023-05-25T18:38:07.854Z,100066.41
2023-05-25T18:40:36.465Z,100074.37
2023-05-25T18:43:06.137Z,100073.47
2023-05-25T18:45:34.704Z,100070.72
2023-05-25T18:48:12.469Z,100080.50
2023-05-25T18:50:42.489Z,100082.09
2023-05-25T18:53:11.600Z,100057.81
2023-05-25T18:58:25.646Z,100068.22
2023-05-25T19:00:53.677Z,100074.75
2023-05-25T19:03:21.996Z,100072.97
2023-05-25T19:05:50.852Z,100080.44
2023-05-25T19:08:19.095Z,100084.25
2023-05-25T19:10:47.364Z,100078.69
2023-05-25T19:13:15.836Z,100083.78
2023-05-25T19:15:44.399Z,100077.28
2023-05-25T19:18:12.956Z,100073.06
2023-05-25T19:20:41.725Z,100069.56
2023-05-25T19:23:10.546Z,100072.09
2023-05-25T19:25:38.815Z,100073.84
2023-05-25T19:28:07.360Z,100068.16
2023-05-25T19:30:35.368Z,100061.88
2023-05-25T19:33:03.495Z,100067.47
2023-05-25T19:35:32.064Z,100066.78
2023-05-25T19:38:01.891Z,100066.66
2023-05-25T19:40:31.504Z,100071.81
2023-05-25T19:43:00.266Z,100072.78
2023-05-25T19:45:28.472Z,100073.09
2023-05-25T19:47:57.484Z,100066.94
2023-05-25T19:50:30.774Z,100083.38
2023-05-25T19:52:59.129Z,100076.44
2023-05-25T19:55:28.175Z,100079.16
2023-05-25T19:57:56.278Z,100071.88
2023-05-25T20:00:26.821Z,100089.06
2023-05-25T20:02:56.227Z,100074.22
2023-05-25T20:05:24.592Z,100081.84
2023-05-25T20:07:52.996Z,100091.03
2023-05-25T20:10:21.500Z,100087.38
2023-05-25T20:12:49.741Z,100080.19
2023-05-25T20:15:18.213Z,100084.22
2023-05-25T20:17:47.117Z,100084.72
2023-05-25T20:20:15.425Z,100086.47
2023-05-25T20:22:43.423Z,100081.75
2023-05-25T20:25:11.975Z,100077.16
2023-05-25T20:27:40.051Z,100068.56
2023-05-25T20:30:08.473Z,100067.16
2023-05-25T20:32:36.922Z,100078.56
2023-05-25T20:35:05.426Z,100073.72
2023-05-25T20:37:33.386Z,100059.44
2023-05-25T20:40:01.877Z,100088.06
2023-05-25T20:42:31.462Z,100082.44
2023-05-25T20:44:59.466Z,100085.72
2023-05-25T20:47:28.038Z,100095.59
2023-05-25T20:49:56.413Z,100082.94
2023-05-25T20:52:25.401Z,100076.50
2023-05-25T20:54:53.677Z,100075.97
2023-05-25T20:57:21.742Z,100066.88
2023-05-25T20:59:49.522Z,100062.56
2023-05-25T21:02:18.367Z,100058.41
2023-05-25T21:04:46.567Z,100058.16
2023-05-25T21:07:14.551Z,100055.72
2023-05-25T21:09:42.842Z,100045.72
2023-05-25T21:12:10.962Z,100050.78
2023-05-25T21:14:39.046Z,100049.28
2023-05-25T21:17:07.507Z,100051.97
2023-05-25T21:19:36.869Z,100050.03
2023-05-25T21:22:05.076Z,100045.28
2023-05-25T21:24:33.419Z,100042.44
2023-05-25T21:27:01.778Z,100043.44
2023-05-25T21:29:31.308Z,100045.28
2023-05-25T21:32:01.660Z,100041.56
2023-05-25T21:34:30.686Z,100042.75
2023-05-25T21:36:58.712Z,100041.94
2023-05-25T21:39:27.137Z,100039.56
2023-05-25T21:41:55.242Z,100043.72
2023-05-25T21:44:23.563Z,100037.06
2023-05-25T21:46:52.059Z,100034.50
2023-05-25T21:49:20.162Z,100024.97
2023-05-25T21:51:48.192Z,100031.75
2023-05-25T21:54:16.854Z,100033.00
2023-05-25T21:56:44.853Z,100013.31
2023-05-25T21:59:12.960Z,100031.25
2023-05-25T22:01:41.526Z,100026.28
2023-05-25T22:04:10.152Z,100026.94
2023-05-25T22:06:38.300Z,100035.25
2023-05-25T22:09:06.269Z,100022.56
2023-05-25T22:11:37.786Z,100034.31
2023-05-25T22:14:06.223Z,100039.00
2023-05-25T22:16:34.539Z,100028.44
2023-05-25T22:19:02.722Z,100034.88
2023-05-25T22:21:30.774Z,100034.88
2023-05-25T22:24:00.015Z,100028.47
2023-05-25T22:26:29.455Z,100033.34
2023-05-25T22:28:57.698Z,100034.47
2023-05-25T22:31:27.265Z,100021.22
2023-05-25T22:33:55.410Z,100034.19
2023-05-25T22:36:23.439Z,100031.81
2023-05-25T22:38:51.906Z,100020.06
2023-05-25T22:41:19.916Z,100031.75
2023-05-25T22:43:58.239Z,100027.72
2023-05-25T22:46:26.372Z,100026.03
2023-05-25T22:48:54.540Z,100042.00
2023-05-25T22:51:22.987Z,100042.72
2023-05-25T22:53:50.987Z,100043.09
2023-05-25T22:56:18.978Z,100049.25
2023-05-25T22:58:47.367Z,100054.69
2023-05-25T23:01:15.493Z,100047.41
2023-05-25T23:03:43.683Z,100051.03
2023-05-25T23:06:12.127Z,100046.41
2023-05-25T23:08:40.035Z,100043.53
2023-05-25T23:11:08.180Z,100043.84
2023-05-25T23:13:37.350Z,100046.81
2023-05-25T23:16:05.650Z,100048.56
2023-05-25T23:18:33.756Z,100045.53
2023-05-25T23:21:02.281Z,100041.50
2023-05-25T23:23:30.330Z,100057.50
2023-05-25T23:25:58.235Z,100051.00
2023-05-25T23:28:27.085Z,100066.97
2023-05-25T23:30:55.849Z,100065.44
2023-05-25T23:33:23.799Z,100062.00
2023-05-25T23:35:52.104Z,100060.31
2023-05-25T23:38:20.118Z,100061.28
2023-05-25T23:40:48.204Z,100063.25
2023-05-25T23:43:28.481Z,100059.50
2023-05-25T23:45:56.615Z,100049.78
2023-05-25T23:48:24.756Z,100060.19
2023-05-25T23:50:53.396Z,100063.25
2023-05-25T23:53:21.560Z,100055.59
2023-05-25T23:55:49.768Z,100047.66
2023-05-25T23:58:18.258Z,100062.16
